sensor_id;sensor_type;location;lat;lon;timestamp;P1;durP1;ratioP1;P2;durP2;ratioP2
37303;SDS011;23188;51.188;16.374;2024-01-06T00:03:01;62.60;;;38.90;;
37303;SDS011;23188;51.188;16.374;2024-01-06T00:07:05;81.50;;;45.10;;
37303;SDS011;23188;51.188;16.374;2024-01-06T00:11:08;64.10;;;42.00;;
37303;SDS011;23188;51.188;16.374;2024-01-06T00:15:12;66.70;;;42.30;;
37303;SDS011;23188;51.188;16.374;2024-01-06T00:19:16;62.20;;;38.40;;
37303;SDS011;23188;51.188;16.374;2024-01-06T00:23:20;66.90;;;37.60;;
37303;SDS011;23188;51.188;16.374;2024-01-06T00:27:23;61.00;;;38.10;;
37303;SDS011;23188;51.188;16.374;2024-01-06T00:31:27;72.50;;;40.30;;
37303;SDS011;23188;51.188;16.374;2024-01-06T00:35:30;51.10;;;34.80;;
37303;SDS011;23188;51.188;16.374;2024-01-06T00:39:33;62.00;;;37.10;;
37303;SDS011;23188;51.188;16.374;2024-01-06T00:43:36;73.20;;;41.00;;
37303;SDS011;23188;51.188;16.374;2024-01-06T00:47:40;57.00;;;34.50;;
37303;SDS011;23188;51.188;16.374;2024-01-06T00:51:43;62.10;;;39.70;;
37303;SDS011;23188;51.188;16.374;2024-01-06T00:55:46;49.90;;;33.70;;
37303;SDS011;23188;51.188;16.374;2024-01-06T00:59:49;62.60;;;40.70;;
37303;SDS011;23188;51.188;16.374;2024-01-06T01:03:53;50.00;;;32.50;;
37303;SDS011;23188;51.188;16.374;2024-01-06T01:07:57;50.20;;;30.70;;
37303;SDS011;23188;51.188;16.374;2024-01-06T01:12:00;48.30;;;34.70;;
37303;SDS011;23188;51.188;16.374;2024-01-06T01:16:03;47.30;;;32.10;;
37303;SDS011;23188;51.188;16.374;2024-01-06T01:20:06;51.50;;;32.90;;
37303;SDS011;23188;51.188;16.374;2024-01-06T01:24:10;53.10;;;30.90;;
37303;SDS011;23188;51.188;16.374;2024-01-06T01:28:14;51.10;;;32.90;;
37303;SDS011;23188;51.188;16.374;2024-01-06T01:32:17;50.20;;;32.60;;
37303;SDS011;23188;51.188;16.374;2024-01-06T01:36:21;52.10;;;32.60;;
37303;SDS011;23188;51.188;16.374;2024-01-06T01:40:25;60.30;;;34.80;;
37303;SDS011;23188;51.188;16.374;2024-01-06T01:44:28;52.30;;;34.00;;
37303;SDS011;23188;51.188;16.374;2024-01-06T01:48:31;51.10;;;33.10;;
37303;SDS011;23188;51.188;16.374;2024-01-06T01:52:38;57.50;;;34.80;;
37303;SDS011;23188;51.188;16.374;2024-01-06T01:56:43;50.80;;;33.80;;
37303;SDS011;23188;51.188;16.374;2024-01-06T02:00:47;56.80;;;31.80;;
37303;SDS011;23188;51.188;16.374;2024-01-06T02:04:50;58.80;;;33.00;;
37303;SDS011;23188;51.188;16.374;2024-01-06T02:08:54;68.40;;;35.50;;
37303;SDS011;23188;51.188;16.374;2024-01-06T02:13:06;66.90;;;34.50;;
37303;SDS011;23188;51.188;16.374;2024-01-06T02:17:14;49.40;;;32.40;;
37303;SDS011;23188;51.188;16.374;2024-01-06T02:21:17;57.10;;;32.60;;
37303;SDS011;23188;51.188;16.374;2024-01-06T02:25:20;53.30;;;31.70;;
37303;SDS011;23188;51.188;16.374;2024-01-06T02:29:24;60.20;;;33.90;;
37303;SDS011;23188;51.188;16.374;2024-01-06T02:33:27;57.50;;;35.70;;
37303;SDS011;23188;51.188;16.374;2024-01-06T02:37:30;52.50;;;33.10;;
37303;SDS011;23188;51.188;16.374;2024-01-06T02:41:34;55.30;;;36.70;;
37303;SDS011;23188;51.188;16.374;2024-01-06T02:45:37;55.50;;;30.90;;
37303;SDS011;23188;51.188;16.374;2024-01-06T02:49:40;60.80;;;34.00;;
37303;SDS011;23188;51.188;16.374;2024-01-06T02:53:44;56.10;;;34.90;;
37303;SDS011;23188;51.188;16.374;2024-01-06T02:57:47;56.60;;;33.30;;
37303;SDS011;23188;51.188;16.374;2024-01-06T03:01:50;59.70;;;36.50;;
37303;SDS011;23188;51.188;16.374;2024-01-06T03:05:54;45.00;;;30.30;;
37303;SDS011;23188;51.188;16.374;2024-01-06T03:09:57;53.20;;;35.10;;
37303;SDS011;23188;51.188;16.374;2024-01-06T03:14:00;65.80;;;36.40;;
37303;SDS011;23188;51.188;16.374;2024-01-06T03:18:04;65.90;;;38.10;;
37303;SDS011;23188;51.188;16.374;2024-01-06T03:22:07;56.30;;;35.00;;
37303;SDS011;23188;51.188;16.374;2024-01-06T03:26:10;61.10;;;32.70;;
37303;SDS011;23188;51.188;16.374;2024-01-06T03:30:14;54.10;;;35.70;;
37303;SDS011;23188;51.188;16.374;2024-01-06T03:34:17;53.30;;;34.90;;
37303;SDS011;23188;51.188;16.374;2024-01-06T03:38:20;52.80;;;36.10;;
37303;SDS011;23188;51.188;16.374;2024-01-06T03:42:23;55.50;;;35.30;;
37303;SDS011;23188;51.188;16.374;2024-01-06T03:46:27;50.10;;;32.50;;
37303;SDS011;23188;51.188;16.374;2024-01-06T03:50:30;56.30;;;34.50;;
37303;SDS011;23188;51.188;16.374;2024-01-06T03:54:33;55.70;;;32.50;;
37303;SDS011;23188;51.188;16.374;2024-01-06T03:58:36;57.10;;;32.30;;
37303;SDS011;23188;51.188;16.374;2024-01-06T04:02:40;44.50;;;29.90;;
37303;SDS011;23188;51.188;16.374;2024-01-06T04:06:44;57.80;;;32.30;;
37303;SDS011;23188;51.188;16.374;2024-01-06T04:10:47;49.70;;;30.80;;
37303;SDS011;23188;51.188;16.374;2024-01-06T04:14:50;45.40;;;27.80;;
37303;SDS011;23188;51.188;16.374;2024-01-06T04:18:53;50.30;;;30.00;;
37303;SDS011;23188;51.188;16.374;2024-01-06T04:22:57;46.80;;;30.60;;
37303;SDS011;23188;51.188;16.374;2024-01-06T04:27:00;50.20;;;30.40;;
37303;SDS011;23188;51.188;16.374;2024-01-06T04:31:04;46.30;;;30.50;;
37303;SDS011;23188;51.188;16.374;2024-01-06T04:35:10;44.10;;;26.20;;
37303;SDS011;23188;51.188;16.374;2024-01-06T04:39:13;46.10;;;30.20;;
37303;SDS011;23188;51.188;16.374;2024-01-06T04:43:17;43.20;;;27.90;;
37303;SDS011;23188;51.188;16.374;2024-01-06T04:47:20;45.90;;;28.00;;
37303;SDS011;23188;51.188;16.374;2024-01-06T04:51:23;43.30;;;25.90;;
37303;SDS011;23188;51.188;16.374;2024-01-06T04:55:27;48.00;;;30.10;;
37303;SDS011;23188;51.188;16.374;2024-01-06T04:59:30;44.80;;;29.90;;
37303;SDS011;23188;51.188;16.374;2024-01-06T05:03:34;50.80;;;30.10;;
37303;SDS011;23188;51.188;16.374;2024-01-06T05:07:37;39.20;;;28.10;;
37303;SDS011;23188;51.188;16.374;2024-01-06T05:11:40;48.40;;;27.50;;
37303;SDS011;23188;51.188;16.374;2024-01-06T05:15:46;54.00;;;28.50;;
37303;SDS011;23188;51.188;16.374;2024-01-06T05:19:50;43.90;;;25.90;;
37303;SDS011;23188;51.188;16.374;2024-01-06T05:23:53;39.20;;;25.90;;
37303;SDS011;23188;51.188;16.374;2024-01-06T05:27:56;39.50;;;23.60;;
37303;SDS011;23188;51.188;16.374;2024-01-06T05:31:59;42.40;;;24.90;;
37303;SDS011;23188;51.188;16.374;2024-01-06T05:36:03;47.20;;;29.30;;
37303;SDS011;23188;51.188;16.374;2024-01-06T05:40:07;42.70;;;25.00;;
37303;SDS011;23188;51.188;16.374;2024-01-06T05:44:10;35.90;;;27.10;;
37303;SDS011;23188;51.188;16.374;2024-01-06T05:48:13;47.40;;;27.00;;
37303;SDS011;23188;51.188;16.374;2024-01-06T05:52:17;38.40;;;24.60;;
37303;SDS011;23188;51.188;16.374;2024-01-06T05:56:26;37.80;;;25.60;;
37303;SDS011;23188;51.188;16.374;2024-01-06T06:00:30;38.90;;;24.70;;
37303;SDS011;23188;51.188;16.374;2024-01-06T06:04:36;45.90;;;23.80;;
37303;SDS011;23188;51.188;16.374;2024-01-06T06:08:40;43.50;;;27.40;;
37303;SDS011;23188;51.188;16.374;2024-01-06T06:12:45;49.00;;;29.70;;
37303;SDS011;23188;51.188;16.374;2024-01-06T06:16:48;40.00;;;24.90;;
37303;SDS011;23188;51.188;16.374;2024-01-06T06:20:51;35.40;;;24.00;;
37303;SDS011;23188;51.188;16.374;2024-01-06T06:24:55;41.40;;;26.30;;
37303;SDS011;23188;51.188;16.374;2024-01-06T06:29:01;44.30;;;28.10;;
37303;SDS011;23188;51.188;16.374;2024-01-06T06:33:04;42.30;;;27.00;;
37303;SDS011;23188;51.188;16.374;2024-01-06T06:37:07;40.30;;;26.00;;
37303;SDS011;23188;51.188;16.374;2024-01-06T06:41:11;44.80;;;26.50;;
37303;SDS011;23188;51.188;16.374;2024-01-06T06:45:14;46.50;;;27.60;;
37303;SDS011;23188;51.188;16.374;2024-01-06T06:49:18;32.20;;;20.80;;
37303;SDS011;23188;51.188;16.374;2024-01-06T06:53:21;37.10;;;22.20;;
37303;SDS011;23188;51.188;16.374;2024-01-06T06:57:25;47.30;;;26.30;;
37303;SDS011;23188;51.188;16.374;2024-01-06T07:01:29;45.60;;;26.90;;
37303;SDS011;23188;51.188;16.374;2024-01-06T07:05:36;47.00;;;27.70;;
37303;SDS011;23188;51.188;16.374;2024-01-06T07:09:40;48.90;;;25.50;;
37303;SDS011;23188;51.188;16.374;2024-01-06T07:13:43;43.20;;;28.50;;
37303;SDS011;23188;51.188;16.374;2024-01-06T07:17:46;42.70;;;26.90;;
37303;SDS011;23188;51.188;16.374;2024-01-06T07:21:50;34.70;;;25.50;;
37303;SDS011;23188;51.188;16.374;2024-01-06T07:25:55;39.10;;;25.00;;
37303;SDS011;23188;51.188;16.374;2024-01-06T07:29:58;42.40;;;24.60;;
37303;SDS011;23188;51.188;16.374;2024-01-06T07:34:02;44.00;;;27.00;;
37303;SDS011;23188;51.188;16.374;2024-01-06T07:38:05;46.50;;;27.00;;
37303;SDS011;23188;51.188;16.374;2024-01-06T07:42:09;38.20;;;24.50;;
37303;SDS011;23188;51.188;16.374;2024-01-06T07:46:12;33.90;;;23.70;;
37303;SDS011;23188;51.188;16.374;2024-01-06T07:50:17;43.20;;;23.60;;
37303;SDS011;23188;51.188;16.374;2024-01-06T07:54:20;40.00;;;23.40;;
37303;SDS011;23188;51.188;16.374;2024-01-06T07:58:23;43.50;;;28.80;;
37303;SDS011;23188;51.188;16.374;2024-01-06T08:02:27;40.10;;;25.40;;
37303;SDS011;23188;51.188;16.374;2024-01-06T08:06:30;47.50;;;29.40;;
37303;SDS011;23188;51.188;16.374;2024-01-06T08:10:33;41.10;;;26.20;;
37303;SDS011;23188;51.188;16.374;2024-01-06T08:14:37;46.80;;;25.80;;
37303;SDS011;23188;51.188;16.374;2024-01-06T08:18:40;42.70;;;25.20;;
37303;SDS011;23188;51.188;16.374;2024-01-06T08:22:43;37.40;;;23.60;;
37303;SDS011;23188;51.188;16.374;2024-01-06T08:26:47;44.30;;;25.60;;
37303;SDS011;23188;51.188;16.374;2024-01-06T08:30:50;49.60;;;26.70;;
37303;SDS011;23188;51.188;16.374;2024-01-06T08:34:54;41.90;;;25.20;;
37303;SDS011;23188;51.188;16.374;2024-01-06T08:38:57;47.90;;;27.00;;
37303;SDS011;23188;51.188;16.374;2024-01-06T08:43:01;42.00;;;24.60;;
37303;SDS011;23188;51.188;16.374;2024-01-06T08:47:05;43.10;;;25.00;;
37303;SDS011;23188;51.188;16.374;2024-01-06T08:51:09;50.00;;;26.40;;
37303;SDS011;23188;51.188;16.374;2024-01-06T08:55:12;36.70;;;22.70;;
37303;SDS011;23188;51.188;16.374;2024-01-06T08:59:17;36.90;;;24.80;;
37303;SDS011;23188;51.188;16.374;2024-01-06T09:03:21;38.00;;;20.40;;
37303;SDS011;23188;51.188;16.374;2024-01-06T09:07:29;38.60;;;20.70;;
37303;SDS011;23188;51.188;16.374;2024-01-06T09:11:32;36.20;;;22.10;;
37303;SDS011;23188;51.188;16.374;2024-01-06T09:15:36;34.70;;;21.50;;
37303;SDS011;23188;51.188;16.374;2024-01-06T09:19:39;39.10;;;21.90;;
37303;SDS011;23188;51.188;16.374;2024-01-06T09:23:43;34.00;;;22.20;;
37303;SDS011;23188;51.188;16.374;2024-01-06T09:27:46;39.00;;;23.80;;
37303;SDS011;23188;51.188;16.374;2024-01-06T09:31:50;45.70;;;25.30;;
37303;SDS011;23188;51.188;16.374;2024-01-06T09:35:53;36.70;;;22.00;;
37303;SDS011;23188;51.188;16.374;2024-01-06T09:39:56;38.20;;;23.60;;
37303;SDS011;23188;51.188;16.374;2024-01-06T09:44:00;44.30;;;24.80;;
37303;SDS011;23188;51.188;16.374;2024-01-06T09:48:05;40.60;;;23.70;;
37303;SDS011;23188;51.188;16.374;2024-01-06T09:52:13;37.40;;;26.40;;
37303;SDS011;23188;51.188;16.374;2024-01-06T09:56:20;38.90;;;23.90;;
37303;SDS011;23188;51.188;16.374;2024-01-06T10:00:25;36.30;;;24.20;;
37303;SDS011;23188;51.188;16.374;2024-01-06T10:04:28;39.60;;;24.90;;
37303;SDS011;23188;51.188;16.374;2024-01-06T10:08:32;35.80;;;23.10;;
37303;SDS011;23188;51.188;16.374;2024-01-06T10:12:40;39.50;;;23.50;;
37303;SDS011;23188;51.188;16.374;2024-01-06T10:16:44;37.20;;;21.90;;
37303;SDS011;23188;51.188;16.374;2024-01-06T10:20:48;43.00;;;24.40;;
37303;SDS011;23188;51.188;16.374;2024-01-06T10:24:54;44.10;;;26.30;;
37303;SDS011;23188;51.188;16.374;2024-01-06T10:28:58;39.40;;;23.40;;
37303;SDS011;23188;51.188;16.374;2024-01-06T10:33:01;40.50;;;25.70;;
37303;SDS011;23188;51.188;16.374;2024-01-06T10:37:05;48.90;;;28.40;;
37303;SDS011;23188;51.188;16.374;2024-01-06T10:41:09;38.10;;;24.90;;
37303;SDS011;23188;51.188;16.374;2024-01-06T10:45:15;42.10;;;26.60;;
37303;SDS011;23188;51.188;16.374;2024-01-06T10:49:20;49.50;;;27.90;;
37303;SDS011;23188;51.188;16.374;2024-01-06T10:53:28;40.80;;;28.60;;
37303;SDS011;23188;51.188;16.374;2024-01-06T10:57:33;39.90;;;24.30;;
37303;SDS011;23188;51.188;16.374;2024-01-06T11:01:37;49.20;;;29.10;;
37303;SDS011;23188;51.188;16.374;2024-01-06T11:05:44;50.30;;;30.60;;
37303;SDS011;23188;51.188;16.374;2024-01-06T11:09:57;55.40;;;34.10;;
37303;SDS011;23188;51.188;16.374;2024-01-06T11:14:19;46.00;;;28.50;;
37303;SDS011;23188;51.188;16.374;2024-01-06T11:18:35;38.30;;;27.60;;
37303;SDS011;23188;51.188;16.374;2024-01-06T11:22:41;47.90;;;27.80;;
37303;SDS011;23188;51.188;16.374;2024-01-06T11:26:45;43.60;;;27.90;;
37303;SDS011;23188;51.188;16.374;2024-01-06T11:31:04;45.00;;;28.90;;
37303;SDS011;23188;51.188;16.374;2024-01-06T11:35:15;50.50;;;28.40;;
37303;SDS011;23188;51.188;16.374;2024-01-06T11:39:37;44.10;;;30.60;;
37303;SDS011;23188;51.188;16.374;2024-01-06T11:43:44;55.30;;;31.50;;
37303;SDS011;23188;51.188;16.374;2024-01-06T11:47:47;62.30;;;35.20;;
37303;SDS011;23188;51.188;16.374;2024-01-06T11:51:54;59.40;;;38.70;;
37303;SDS011;23188;51.188;16.374;2024-01-06T11:55:59;58.20;;;35.80;;
37303;SDS011;23188;51.188;16.374;2024-01-06T12:00:03;57.40;;;38.10;;
37303;SDS011;23188;51.188;16.374;2024-01-06T12:04:07;56.70;;;36.10;;
37303;SDS011;23188;51.188;16.374;2024-01-06T12:08:11;69.80;;;40.50;;
37303;SDS011;23188;51.188;16.374;2024-01-06T12:12:17;76.90;;;43.60;;
37303;SDS011;23188;51.188;16.374;2024-01-06T12:16:21;61.20;;;40.10;;
37303;SDS011;23188;51.188;16.374;2024-01-06T12:20:26;70.60;;;42.00;;
37303;SDS011;23188;51.188;16.374;2024-01-06T12:24:31;66.20;;;39.00;;
37303;SDS011;23188;51.188;16.374;2024-01-06T12:28:38;70.60;;;47.60;;
37303;SDS011;23188;51.188;16.374;2024-01-06T12:32:42;75.30;;;45.90;;
37303;SDS011;23188;51.188;16.374;2024-01-06T12:36:46;66.10;;;41.00;;
37303;SDS011;23188;51.188;16.374;2024-01-06T12:40:50;72.20;;;42.50;;
37303;SDS011;23188;51.188;16.374;2024-01-06T12:44:53;73.50;;;41.70;;
37303;SDS011;23188;51.188;16.374;2024-01-06T12:48:56;64.70;;;38.60;;
37303;SDS011;23188;51.188;16.374;2024-01-06T12:53:00;72.80;;;38.60;;
37303;SDS011;23188;51.188;16.374;2024-01-06T12:57:03;70.40;;;42.70;;
37303;SDS011;23188;51.188;16.374;2024-01-06T13:01:06;63.00;;;39.50;;
37303;SDS011;23188;51.188;16.374;2024-01-06T13:05:10;66.20;;;39.60;;
37303;SDS011;23188;51.188;16.374;2024-01-06T13:09:13;67.40;;;40.50;;
37303;SDS011;23188;51.188;16.374;2024-01-06T13:13:19;66.90;;;45.80;;
37303;SDS011;23188;51.188;16.374;2024-01-06T13:17:22;77.80;;;42.80;;
37303;SDS011;23188;51.188;16.374;2024-01-06T13:21:26;70.90;;;46.00;;
37303;SDS011;23188;51.188;16.374;2024-01-06T13:25:31;71.20;;;42.90;;
37303;SDS011;23188;51.188;16.374;2024-01-06T13:29:34;71.30;;;44.00;;
37303;SDS011;23188;51.188;16.374;2024-01-06T13:33:38;71.80;;;42.70;;
37303;SDS011;23188;51.188;16.374;2024-01-06T13:37:41;79.10;;;45.60;;
37303;SDS011;23188;51.188;16.374;2024-01-06T13:41:46;73.30;;;43.60;;
37303;SDS011;23188;51.188;16.374;2024-01-06T13:45:53;75.10;;;44.60;;
37303;SDS011;23188;51.188;16.374;2024-01-06T13:49:56;73.90;;;38.40;;
37303;SDS011;23188;51.188;16.374;2024-01-06T13:54:00;73.50;;;41.30;;
37303;SDS011;23188;51.188;16.374;2024-01-06T13:58:03;69.20;;;40.70;;
37303;SDS011;23188;51.188;16.374;2024-01-06T14:02:07;71.60;;;44.40;;
37303;SDS011;23188;51.188;16.374;2024-01-06T14:06:10;69.80;;;42.20;;
37303;SDS011;23188;51.188;16.374;2024-01-06T14:10:13;66.20;;;42.00;;
37303;SDS011;23188;51.188;16.374;2024-01-06T14:14:18;76.00;;;45.40;;
37303;SDS011;23188;51.188;16.374;2024-01-06T14:18:21;69.80;;;41.40;;
37303;SDS011;23188;51.188;16.374;2024-01-06T14:22:25;65.30;;;39.70;;
37303;SDS011;23188;51.188;16.374;2024-01-06T14:26:29;71.50;;;43.80;;
37303;SDS011;23188;51.188;16.374;2024-01-06T14:30:33;82.20;;;45.00;;
37303;SDS011;23188;51.188;16.374;2024-01-06T14:34:37;81.80;;;43.10;;
37303;SDS011;23188;51.188;16.374;2024-01-06T14:38:40;73.30;;;42.20;;
37303;SDS011;23188;51.188;16.374;2024-01-06T14:42:43;67.20;;;40.40;;
37303;SDS011;23188;51.188;16.374;2024-01-06T14:46:47;62.60;;;42.40;;
37303;SDS011;23188;51.188;16.374;2024-01-06T14:50:51;77.50;;;42.50;;
37303;SDS011;23188;51.188;16.374;2024-01-06T14:54:54;70.00;;;42.40;;
37303;SDS011;23188;51.188;16.374;2024-01-06T14:58:57;62.50;;;39.70;;
37303;SDS011;23188;51.188;16.374;2024-01-06T15:03:00;72.10;;;41.70;;
37303;SDS011;23188;51.188;16.374;2024-01-06T15:07:04;65.70;;;38.00;;
37303;SDS011;23188;51.188;16.374;2024-01-06T15:11:07;73.70;;;42.10;;
37303;SDS011;23188;51.188;16.374;2024-01-06T15:15:11;67.20;;;41.90;;
37303;SDS011;23188;51.188;16.374;2024-01-06T15:19:14;73.20;;;42.70;;
37303;SDS011;23188;51.188;16.374;2024-01-06T15:23:18;61.90;;;38.40;;
37303;SDS011;23188;51.188;16.374;2024-01-06T15:27:22;62.00;;;36.70;;
37303;SDS011;23188;51.188;16.374;2024-01-06T15:31:26;67.10;;;39.20;;
37303;SDS011;23188;51.188;16.374;2024-01-06T15:35:30;75.30;;;39.30;;
37303;SDS011;23188;51.188;16.374;2024-01-06T15:39:33;70.30;;;40.10;;
37303;SDS011;23188;51.188;16.374;2024-01-06T15:43:36;67.80;;;42.30;;
37303;SDS011;23188;51.188;16.374;2024-01-06T15:47:40;73.90;;;42.80;;
37303;SDS011;23188;51.188;16.374;2024-01-06T15:51:43;71.80;;;37.00;;
37303;SDS011;23188;51.188;16.374;2024-01-06T15:55:46;69.50;;;40.30;;
37303;SDS011;23188;51.188;16.374;2024-01-06T15:59:49;60.30;;;37.70;;
37303;SDS011;23188;51.188;16.374;2024-01-06T16:03:54;65.10;;;38.60;;
37303;SDS011;23188;51.188;16.374;2024-01-06T16:07:57;70.80;;;41.20;;
37303;SDS011;23188;51.188;16.374;2024-01-06T16:12:00;69.60;;;42.10;;
37303;SDS011;23188;51.188;16.374;2024-01-06T16:16:03;66.40;;;39.70;;
37303;SDS011;23188;51.188;16.374;2024-01-06T16:20:08;73.60;;;38.20;;
37303;SDS011;23188;51.188;16.374;2024-01-06T16:24:12;60.90;;;39.40;;
37303;SDS011;23188;51.188;16.374;2024-01-06T16:28:15;65.90;;;38.90;;
37303;SDS011;23188;51.188;16.374;2024-01-06T16:32:18;62.00;;;36.20;;
37303;SDS011;23188;51.188;16.374;2024-01-06T16:36:24;61.40;;;32.20;;
37303;SDS011;23188;51.188;16.374;2024-01-06T16:40:27;69.00;;;41.50;;
37303;SDS011;23188;51.188;16.374;2024-01-06T16:44:31;61.30;;;38.30;;
37303;SDS011;23188;51.188;16.374;2024-01-06T16:48:35;61.00;;;37.00;;
37303;SDS011;23188;51.188;16.374;2024-01-06T16:52:39;57.70;;;32.10;;
37303;SDS011;23188;51.188;16.374;2024-01-06T16:56:42;70.20;;;38.70;;
37303;SDS011;23188;51.188;16.374;2024-01-06T17:00:46;64.20;;;39.30;;
37303;SDS011;23188;51.188;16.374;2024-01-06T17:04:50;60.40;;;35.20;;
37303;SDS011;23188;51.188;16.374;2024-01-06T17:08:54;69.00;;;34.90;;
37303;SDS011;23188;51.188;16.374;2024-01-06T17:12:57;62.80;;;32.20;;
37303;SDS011;23188;51.188;16.374;2024-01-06T17:17:00;69.70;;;32.80;;
37303;SDS011;23188;51.188;16.374;2024-01-06T17:21:03;62.20;;;34.90;;
37303;SDS011;23188;51.188;16.374;2024-01-06T17:25:07;55.50;;;33.20;;
37303;SDS011;23188;51.188;16.374;2024-01-06T17:29:17;59.70;;;38.00;;
37303;SDS011;23188;51.188;16.374;2024-01-06T17:33:21;63.60;;;34.30;;
37303;SDS011;23188;51.188;16.374;2024-01-06T17:37:24;51.40;;;31.60;;
37303;SDS011;23188;51.188;16.374;2024-01-06T17:41:28;60.10;;;30.20;;
37303;SDS011;23188;51.188;16.374;2024-01-06T17:45:39;53.40;;;31.80;;
37303;SDS011;23188;51.188;16.374;2024-01-06T17:49:42;54.80;;;30.70;;
37303;SDS011;23188;51.188;16.374;2024-01-06T17:53:47;62.40;;;34.10;;
37303;SDS011;23188;51.188;16.374;2024-01-06T17:57:50;49.90;;;30.80;;
37303;SDS011;23188;51.188;16.374;2024-01-06T18:01:53;56.60;;;35.50;;
37303;SDS011;23188;51.188;16.374;2024-01-06T18:05:57;48.30;;;31.00;;
37303;SDS011;23188;51.188;16.374;2024-01-06T18:10:00;55.10;;;31.70;;
37303;SDS011;23188;51.188;16.374;2024-01-06T18:14:06;48.20;;;26.80;;
37303;SDS011;23188;51.188;16.374;2024-01-06T18:18:09;59.70;;;29.30;;
37303;SDS011;23188;51.188;16.374;2024-01-06T18:22:13;47.20;;;28.30;;
37303;SDS011;23188;51.188;16.374;2024-01-06T18:26:16;54.30;;;31.50;;
37303;SDS011;23188;51.188;16.374;2024-01-06T18:30:19;54.00;;;34.70;;
37303;SDS011;23188;51.188;16.374;2024-01-06T18:34:23;47.20;;;31.00;;
37303;SDS011;23188;51.188;16.374;2024-01-06T18:38:26;52.20;;;29.80;;
37303;SDS011;23188;51.188;16.374;2024-01-06T18:42:29;51.20;;;27.70;;
37303;SDS011;23188;51.188;16.374;2024-01-06T18:46:38;54.80;;;31.10;;
37303;SDS011;23188;51.188;16.374;2024-01-06T18:50:43;51.20;;;31.20;;
37303;SDS011;23188;51.188;16.374;2024-01-06T18:54:47;43.50;;;28.00;;
37303;SDS011;23188;51.188;16.374;2024-01-06T18:58:51;47.80;;;28.40;;
37303;SDS011;23188;51.188;16.374;2024-01-06T19:02:56;42.00;;;23.40;;
37303;SDS011;23188;51.188;16.374;2024-01-06T19:07:02;39.20;;;25.80;;
37303;SDS011;23188;51.188;16.374;2024-01-06T19:11:06;39.30;;;24.60;;
37303;SDS011;23188;51.188;16.374;2024-01-06T19:15:09;40.10;;;23.20;;
37303;SDS011;23188;51.188;16.374;2024-01-06T19:19:12;49.70;;;26.90;;
37303;SDS011;23188;51.188;16.374;2024-01-06T19:23:15;42.30;;;26.20;;
37303;SDS011;23188;51.188;16.374;2024-01-06T19:27:19;38.20;;;21.80;;
37303;SDS011;23188;51.188;16.374;2024-01-06T19:31:22;35.90;;;24.60;;
37303;SDS011;23188;51.188;16.374;2024-01-06T19:35:27;46.10;;;25.90;;
37303;SDS011;23188;51.188;16.374;2024-01-06T19:39:30;41.60;;;24.30;;
37303;SDS011;23188;51.188;16.374;2024-01-06T19:43:33;44.90;;;26.10;;
37303;SDS011;23188;51.188;16.374;2024-01-06T19:47:36;34.20;;;20.00;;
37303;SDS011;23188;51.188;16.374;2024-01-06T19:51:39;36.40;;;20.60;;
37303;SDS011;23188;51.188;16.374;2024-01-06T19:55:43;41.10;;;23.60;;
37303;SDS011;23188;51.188;16.374;2024-01-06T19:59:46;32.10;;;21.00;;
37303;SDS011;23188;51.188;16.374;2024-01-06T20:03:53;42.90;;;22.40;;
37303;SDS011;23188;51.188;16.374;2024-01-06T20:07:56;37.70;;;22.00;;
37303;SDS011;23188;51.188;16.374;2024-01-06T20:12:00;37.80;;;21.40;;
37303;SDS011;23188;51.188;16.374;2024-01-06T20:16:04;32.40;;;20.00;;
37303;SDS011;23188;51.188;16.374;2024-01-06T20:20:08;39.20;;;19.30;;
37303;SDS011;23188;51.188;16.374;2024-01-06T20:24:13;32.80;;;19.00;;
37303;SDS011;23188;51.188;16.374;2024-01-06T20:28:16;32.00;;;20.20;;
37303;SDS011;23188;51.188;16.374;2024-01-06T20:32:19;30.20;;;19.90;;
37303;SDS011;23188;51.188;16.374;2024-01-06T20:36:23;42.00;;;23.40;;
37303;SDS011;23188;51.188;16.374;2024-01-06T20:40:26;33.80;;;19.80;;
37303;SDS011;23188;51.188;16.374;2024-01-06T20:44:30;47.40;;;22.00;;
37303;SDS011;23188;51.188;16.374;2024-01-06T20:48:33;39.90;;;22.50;;
37303;SDS011;23188;51.188;16.374;2024-01-06T20:52:38;40.10;;;20.30;;
37303;SDS011;23188;51.188;16.374;2024-01-06T20:56:41;40.70;;;24.10;;
37303;SDS011;23188;51.188;16.374;2024-01-06T21:00:44;38.90;;;22.50;;
37303;SDS011;23188;51.188;16.374;2024-01-06T21:04:48;38.10;;;21.00;;
37303;SDS011;23188;51.188;16.374;2024-01-06T21:08:51;30.30;;;18.70;;
37303;SDS011;23188;51.188;16.374;2024-01-06T21:12:55;38.00;;;22.90;;
37303;SDS011;23188;51.188;16.374;2024-01-06T21:16:58;37.20;;;17.70;;
37303;SDS011;23188;51.188;16.374;2024-01-06T21:21:02;33.80;;;20.00;;
37303;SDS011;23188;51.188;16.374;2024-01-06T21:25:06;29.20;;;19.40;;
37303;SDS011;23188;51.188;16.374;2024-01-06T21:29:10;37.00;;;20.60;;
37303;SDS011;23188;51.188;16.374;2024-01-06T21:33:14;32.60;;;17.50;;
37303;SDS011;23188;51.188;16.374;2024-01-06T21:37:17;28.60;;;19.10;;
37303;SDS011;23188;51.188;16.374;2024-01-06T21:41:21;23.70;;;15.10;;
37303;SDS011;23188;51.188;16.374;2024-01-06T21:45:24;31.00;;;15.90;;
37303;SDS011;23188;51.188;16.374;2024-01-06T21:49:27;26.40;;;16.80;;
37303;SDS011;23188;51.188;16.374;2024-01-06T21:53:30;28.90;;;17.90;;
37303;SDS011;23188;51.188;16.374;2024-01-06T21:57:34;28.80;;;19.10;;
37303;SDS011;23188;51.188;16.374;2024-01-06T22:01:37;25.10;;;15.10;;
37303;SDS011;23188;51.188;16.374;2024-01-06T22:05:42;25.90;;;19.50;;
37303;SDS011;23188;51.188;16.374;2024-01-06T22:09:45;27.30;;;16.70;;
37303;SDS011;23188;51.188;16.374;2024-01-06T22:13:49;23.70;;;13.50;;
37303;SDS011;23188;51.188;16.374;2024-01-06T22:17:52;21.70;;;14.20;;
37303;SDS011;23188;51.188;16.374;2024-01-06T22:21:56;28.60;;;15.40;;
37303;SDS011;23188;51.188;16.374;2024-01-06T22:25:59;26.70;;;14.50;;
37303;SDS011;23188;51.188;16.374;2024-01-06T22:30:02;19.90;;;13.60;;
37303;SDS011;23188;51.188;16.374;2024-01-06T22:34:06;35.20;;;15.00;;
37303;SDS011;23188;51.188;16.374;2024-01-06T22:38:10;24.50;;;14.30;;
37303;SDS011;23188;51.188;16.374;2024-01-06T22:42:13;25.00;;;14.70;;
37303;SDS011;23188;51.188;16.374;2024-01-06T22:46:16;27.10;;;14.90;;
37303;SDS011;23188;51.188;16.374;2024-01-06T22:50:20;27.50;;;16.30;;
37303;SDS011;23188;51.188;16.374;2024-01-06T22:54:23;27.30;;;15.00;;
37303;SDS011;23188;51.188;16.374;2024-01-06T22:58:27;19.80;;;14.20;;
37303;SDS011;23188;51.188;16.374;2024-01-06T23:02:31;22.80;;;14.40;;
37303;SDS011;23188;51.188;16.374;2024-01-06T23:06:34;31.10;;;13.50;;
37303;SDS011;23188;51.188;16.374;2024-01-06T23:10:37;31.20;;;13.80;;
37303;SDS011;23188;51.188;16.374;2024-01-06T23:14:41;17.40;;;13.00;;
37303;SDS011;23188;51.188;16.374;2024-01-06T23:18:44;19.60;;;12.30;;
37303;SDS011;23188;51.188;16.374;2024-01-06T23:22:47;21.50;;;12.60;;
37303;SDS011;23188;51.188;16.374;2024-01-06T23:26:50;19.70;;;14.30;;